sensor_id;sensor_type;location;lat;lon;timestamp;P1;durP1;ratioP1;P2;durP2;ratioP2
21301;SDS011;10810;48.270;9.996;2023-11-21T00:02:03;5.60;;;1.37;;
21301;SDS011;10810;48.270;9.996;2023-11-21T00:04:35;3.33;;;1.00;;
21301;SDS011;10810;48.270;9.996;2023-11-21T00:07:05;4.00;;;1.00;;
21301;SDS011;10810;48.270;9.996;2023-11-21T00:09:32;6.53;;;1.27;;
21301;SDS011;10810;48.270;9.996;2023-11-21T00:12:01;1.90;;;1.00;;
21301;SDS011;10810;48.270;9.996;2023-11-21T00:14:35;4.20;;;1.33;;
21301;SDS011;10810;48.270;9.996;2023-11-21T00:17:03;2.37;;;1.10;;
21301;SDS011;10810;48.270;9.996;2023-11-21T00:19:34;6.30;;;1.40;;
21301;SDS011;10810;48.270;9.996;2023-11-21T00:22:01;7.40;;;1.30;;
21301;SDS011;10810;48.270;9.996;2023-11-21T00:24:28;7.87;;;1.27;;
21301;SDS011;10810;48.270;9.996;2023-11-21T00:26:57;4.40;;;1.20;;
21301;SDS011;10810;48.270;9.996;2023-11-21T00:29:24;2.87;;;1.00;;
21301;SDS011;10810;48.270;9.996;2023-11-21T00:31:51;3.43;;;1.10;;
21301;SDS011;10810;48.270;9.996;2023-11-21T00:34:24;4.87;;;1.20;;
21301;SDS011;10810;48.270;9.996;2023-11-21T00:36:55;4.17;;;1.10;;
21301;SDS011;10810;48.270;9.996;2023-11-21T00:39:23;4.93;;;1.30;;
21301;SDS011;10810;48.270;9.996;2023-11-21T00:41:51;8.70;;;1.40;;
21301;SDS011;10810;48.270;9.996;2023-11-21T00:44:23;2.73;;;1.00;;
21301;SDS011;10810;48.270;9.996;2023-11-21T00:46:53;3.33;;;1.40;;
21301;SDS011;10810;48.270;9.996;2023-11-21T00:49:26;4.30;;;1.27;;
21301;SDS011;10810;48.270;9.996;2023-11-21T00:51:56;6.07;;;1.40;;
21301;SDS011;10810;48.270;9.996;2023-11-21T00:54:23;7.70;;;1.70;;
21301;SDS011;10810;48.270;9.996;2023-11-21T00:57:07;3.03;;;1.13;;
21301;SDS011;10810;48.270;9.996;2023-11-21T00:59:36;5.47;;;1.33;;
21301;SDS011;10810;48.270;9.996;2023-11-21T01:02:04;4.97;;;1.40;;
21301;SDS011;10810;48.270;9.996;2023-11-21T01:04:35;7.40;;;1.70;;
21301;SDS011;10810;48.270;9.996;2023-11-21T01:07:06;3.93;;;1.30;;
21301;SDS011;10810;48.270;9.996;2023-11-21T01:09:33;4.13;;;1.27;;
21301;SDS011;10810;48.270;9.996;2023-11-21T01:12:01;5.57;;;1.10;;
21301;SDS011;10810;48.270;9.996;2023-11-21T01:14:30;4.23;;;1.33;;
21301;SDS011;10810;48.270;9.996;2023-11-21T01:16:59;6.17;;;1.30;;
21301;SDS011;10810;48.270;9.996;2023-11-21T01:19:26;7.87;;;1.50;;
21301;SDS011;10810;48.270;9.996;2023-11-21T01:22:35;4.83;;;1.27;;
21301;SDS011;10810;48.270;9.996;2023-11-21T01:25:04;5.07;;;1.20;;
21301;SDS011;10810;48.270;9.996;2023-11-21T01:27:35;4.73;;;1.30;;
21301;SDS011;10810;48.270;9.996;2023-11-21T01:32:56;5.77;;;1.30;;
21301;SDS011;10810;48.270;9.996;2023-11-21T01:35:26;4.20;;;1.60;;
21301;SDS011;10810;48.270;9.996;2023-11-21T01:40:56;4.27;;;1.37;;
21301;SDS011;10810;48.270;9.996;2023-11-21T01:43:25;6.87;;;1.80;;
21301;SDS011;10810;48.270;9.996;2023-11-21T01:46:07;2.60;;;1.23;;
21301;SDS011;10810;48.270;9.996;2023-11-21T01:48:35;5.13;;;1.40;;
21301;SDS011;10810;48.270;9.996;2023-11-21T01:51:10;5.07;;;1.50;;
21301;SDS011;10810;48.270;9.996;2023-11-21T01:56:55;2.93;;;1.30;;
21301;SDS011;10810;48.270;9.996;2023-11-21T01:59:20;6.83;;;1.60;;
21301;SDS011;10810;48.270;9.996;2023-11-21T02:01:53;5.00;;;1.50;;
21301;SDS011;10810;48.270;9.996;2023-11-21T02:04:23;6.00;;;1.40;;
21301;SDS011;10810;48.270;9.996;2023-11-21T02:08:23;4.70;;;1.33;;
21301;SDS011;10810;48.270;9.996;2023-11-21T02:13:28;5.03;;;1.40;;
21301;SDS011;10810;48.270;9.996;2023-11-21T02:16:02;2.87;;;1.40;;
21301;SDS011;10810;48.270;9.996;2023-11-21T02:18:31;5.53;;;1.30;;
21301;SDS011;10810;48.270;9.996;2023-11-21T02:21:51;5.67;;;1.20;;
21301;SDS011;10810;48.270;9.996;2023-11-21T02:27:24;2.93;;;0.93;;
21301;SDS011;10810;48.270;9.996;2023-11-21T02:30:53;5.37;;;1.10;;
21301;SDS011;10810;48.270;9.996;2023-11-21T02:33:07;4.90;;;1.20;;
21301;SDS011;10810;48.270;9.996;2023-11-21T02:35:46;5.40;;;1.20;;
21301;SDS011;10810;48.270;9.996;2023-11-21T02:38:16;5.23;;;0.97;;
21301;SDS011;10810;48.270;9.996;2023-11-21T02:40:50;4.43;;;1.00;;
21301;SDS011;10810;48.270;9.996;2023-11-21T02:43:32;5.47;;;1.03;;
21301;SDS011;10810;48.270;9.996;2023-11-21T02:46:05;3.93;;;1.10;;
21301;SDS011;10810;48.270;9.996;2023-11-21T02:48:35;4.57;;;1.07;;
21301;SDS011;10810;48.270;9.996;2023-11-21T02:51:05;3.70;;;0.93;;
21301;SDS011;10810;48.270;9.996;2023-11-21T02:53:33;6.07;;;1.03;;
21301;SDS011;10810;48.270;9.996;2023-11-21T02:56:02;4.97;;;0.97;;
21301;SDS011;10810;48.270;9.996;2023-11-21T02:58:44;3.07;;;0.80;;
21301;SDS011;10810;48.270;9.996;2023-11-21T03:01:47;3.13;;;0.90;;
21301;SDS011;10810;48.270;9.996;2023-11-21T03:04:17;3.50;;;1.00;;
21301;SDS011;10810;48.270;9.996;2023-11-21T03:06:48;5.10;;;1.10;;
21301;SDS011;10810;48.270;9.996;2023-11-21T03:09:48;5.03;;;0.80;;
21301;SDS011;10810;48.270;9.996;2023-11-21T03:12:10;3.40;;;1.00;;
21301;SDS011;10810;48.270;9.996;2023-11-21T03:18:25;3.57;;;0.80;;
21301;SDS011;10810;48.270;9.996;2023-11-21T03:20:55;5.60;;;0.90;;
21301;SDS011;10810;48.270;9.996;2023-11-21T03:23:34;3.60;;;1.00;;
21301;SDS011;10810;48.270;9.996;2023-11-21T03:26:01;2.57;;;0.90;;
21301;SDS011;10810;48.270;9.996;2023-11-21T03:31:15;2.70;;;0.87;;
21301;SDS011;10810;48.270;9.996;2023-11-21T03:33:46;4.00;;;0.70;;
21301;SDS011;10810;48.270;9.996;2023-11-21T03:36:13;2.13;;;0.80;;
21301;SDS011;10810;48.270;9.996;2023-11-21T03:38:41;9.93;;;0.80;;
21301;SDS011;10810;48.270;9.996;2023-11-21T03:41:08;1.13;;;0.73;;
21301;SDS011;10810;48.270;9.996;2023-11-21T03:43:40;2.40;;;0.80;;
21301;SDS011;10810;48.270;9.996;2023-11-21T03:46:10;5.53;;;0.90;;
21301;SDS011;10810;48.270;9.996;2023-11-21T03:48:38;4.63;;;1.10;;
21301;SDS011;10810;48.270;9.996;2023-11-21T03:51:07;4.57;;;1.03;;
21301;SDS011;10810;48.270;9.996;2023-11-21T03:53:35;2.40;;;0.70;;
21301;SDS011;10810;48.270;9.996;2023-11-21T03:56:04;3.20;;;0.80;;
21301;SDS011;10810;48.270;9.996;2023-11-21T03:58:34;3.27;;;0.97;;
21301;SDS011;10810;48.270;9.996;2023-11-21T04:01:04;3.33;;;0.73;;
21301;SDS011;10810;48.270;9.996;2023-11-21T04:06:25;5.23;;;0.80;;
21301;SDS011;10810;48.270;9.996;2023-11-21T04:09:01;2.97;;;0.90;;
21301;SDS011;10810;48.270;9.996;2023-11-21T04:11:29;2.60;;;0.80;;
21301;SDS011;10810;48.270;9.996;2023-11-21T04:16:59;2.50;;;0.90;;
21301;SDS011;10810;48.270;9.996;2023-11-21T04:19:42;2.20;;;1.10;;
21301;SDS011;10810;48.270;9.996;2023-11-21T04:22:24;3.47;;;0.90;;
21301;SDS011;10810;48.270;9.996;2023-11-21T04:24:53;3.77;;;0.87;;
21301;SDS011;10810;48.270;9.996;2023-11-21T04:27:21;4.40;;;0.90;;
21301;SDS011;10810;48.270;9.996;2023-11-21T04:29:50;2.97;;;1.10;;
21301;SDS011;10810;48.270;9.996;2023-11-21T04:32:35;4.13;;;0.87;;
21301;SDS011;10810;48.270;9.996;2023-11-21T04:35:12;4.33;;;1.10;;
21301;SDS011;10810;48.270;9.996;2023-11-21T04:43:57;1.50;;;1.00;;
21301;SDS011;10810;48.270;9.996;2023-11-21T04:46:27;3.47;;;0.90;;
21301;SDS011;10810;48.270;9.996;2023-11-21T04:49:02;3.27;;;0.80;;
21301;SDS011;10810;48.270;9.996;2023-11-21T04:51:30;3.83;;;1.10;;
21301;SDS011;10810;48.270;9.996;2023-11-21T04:54:12;4.17;;;1.10;;
21301;SDS011;10810;48.270;9.996;2023-11-21T04:56:40;7.33;;;1.23;;
21301;SDS011;10810;48.270;9.996;2023-11-21T04:59:08;5.93;;;1.00;;
21301;SDS011;10810;48.270;9.996;2023-11-21T05:01:36;5.53;;;1.07;;
21301;SDS011;10810;48.270;9.996;2023-11-21T05:04:04;1.50;;;0.90;;
21301;SDS011;10810;48.270;9.996;2023-11-21T05:06:33;4.27;;;1.20;;
21301;SDS011;10810;48.270;9.996;2023-11-21T05:09:04;4.30;;;1.13;;
21301;SDS011;10810;48.270;9.996;2023-11-21T05:11:38;5.60;;;1.07;;
21301;SDS011;10810;48.270;9.996;2023-11-21T05:14:21;3.27;;;1.03;;
21301;SDS011;10810;48.270;9.996;2023-11-21T05:17:48;6.40;;;1.20;;
21301;SDS011;10810;48.270;9.996;2023-11-21T05:20:38;5.47;;;1.30;;
21301;SDS011;10810;48.270;9.996;2023-11-21T05:23:55;5.00;;;1.00;;
21301;SDS011;10810;48.270;9.996;2023-11-21T05:26:28;4.03;;;1.33;;
21301;SDS011;10810;48.270;9.996;2023-11-21T05:28:57;4.73;;;1.07;;
21301;SDS011;10810;48.270;9.996;2023-11-21T05:31:25;3.73;;;0.90;;
21301;SDS011;10810;48.270;9.996;2023-11-21T05:33:54;2.77;;;1.07;;
21301;SDS011;10810;48.270;9.996;2023-11-21T05:36:25;2.17;;;0.97;;
21301;SDS011;10810;48.270;9.996;2023-11-21T05:38:53;5.10;;;1.07;;
21301;SDS011;10810;48.270;9.996;2023-11-21T05:41:22;3.83;;;1.00;;
21301;SDS011;10810;48.270;9.996;2023-11-21T05:44:00;2.13;;;0.83;;
21301;SDS011;10810;48.270;9.996;2023-11-21T05:46:27;2.10;;;0.80;;
21301;SDS011;10810;48.270;9.996;2023-11-21T05:48:57;2.70;;;1.00;;
21301;SDS011;10810;48.270;9.996;2023-11-21T05:51:25;2.47;;;0.93;;
21301;SDS011;10810;48.270;9.996;2023-11-21T05:53:55;3.37;;;1.70;;
21301;SDS011;10810;48.270;9.996;2023-11-21T05:56:28;3.60;;;0.90;;
21301;SDS011;10810;48.270;9.996;2023-11-21T06:01:46;3.40;;;1.00;;
21301;SDS011;10810;48.270;9.996;2023-11-21T06:04:13;3.60;;;1.17;;
21301;SDS011;10810;48.270;9.996;2023-11-21T06:06:42;2.07;;;1.00;;
21301;SDS011;10810;48.270;9.996;2023-11-21T06:09:17;3.40;;;0.93;;
21301;SDS011;10810;48.270;9.996;2023-11-21T06:15:04;4.40;;;0.80;;
21301;SDS011;10810;48.270;9.996;2023-11-21T06:17:33;1.70;;;0.80;;
21301;SDS011;10810;48.270;9.996;2023-11-21T06:20:02;4.47;;;1.00;;
21301;SDS011;10810;48.270;9.996;2023-11-21T06:22:34;2.17;;;1.00;;
21301;SDS011;10810;48.270;9.996;2023-11-21T06:25:02;4.50;;;1.00;;
21301;SDS011;10810;48.270;9.996;2023-11-21T06:27:31;3.00;;;0.90;;
21301;SDS011;10810;48.270;9.996;2023-11-21T06:30:00;2.93;;;0.90;;
21301;SDS011;10810;48.270;9.996;2023-11-21T06:32:33;1.07;;;0.90;;
21301;SDS011;10810;48.270;9.996;2023-11-21T06:35:01;3.13;;;1.20;;
21301;SDS011;10810;48.270;9.996;2023-11-21T06:37:29;2.93;;;1.40;;
21301;SDS011;10810;48.270;9.996;2023-11-21T06:39:57;3.47;;;1.10;;
21301;SDS011;10810;48.270;9.996;2023-11-21T06:42:25;3.67;;;1.20;;
21301;SDS011;10810;48.270;9.996;2023-11-21T06:44:55;2.60;;;1.10;;
21301;SDS011;10810;48.270;9.996;2023-11-21T06:47:29;2.60;;;1.20;;
21301;SDS011;10810;48.270;9.996;2023-11-21T06:49:58;2.43;;;1.07;;
21301;SDS011;10810;48.270;9.996;2023-11-21T06:52:25;3.53;;;1.10;;
21301;SDS011;10810;48.270;9.996;2023-11-21T06:54:53;1.97;;;1.00;;
21301;SDS011;10810;48.270;9.996;2023-11-21T06:57:22;1.80;;;1.20;;
21301;SDS011;10810;48.270;9.996;2023-11-21T06:59:51;3.10;;;1.07;;
21301;SDS011;10810;48.270;9.996;2023-11-21T07:02:18;3.63;;;1.10;;
21301;SDS011;10810;48.270;9.996;2023-11-21T07:04:45;2.73;;;0.80;;
21301;SDS011;10810;48.270;9.996;2023-11-21T07:07:14;1.87;;;0.90;;
21301;SDS011;10810;48.270;9.996;2023-11-21T07:09:42;3.77;;;0.87;;
21301;SDS011;10810;48.270;9.996;2023-11-21T07:12:14;4.00;;;1.10;;
21301;SDS011;10810;48.270;9.996;2023-11-21T07:14:44;4.03;;;1.00;;
21301;SDS011;10810;48.270;9.996;2023-11-21T07:17:18;1.73;;;0.90;;
21301;SDS011;10810;48.270;9.996;2023-11-21T07:19:48;2.87;;;1.10;;
21301;SDS011;10810;48.270;9.996;2023-11-21T07:22:27;3.43;;;0.90;;
21301;SDS011;10810;48.270;9.996;2023-11-21T07:24:55;4.10;;;1.13;;
21301;SDS011;10810;48.270;9.996;2023-11-21T07:27:22;6.83;;;1.10;;
21301;SDS011;10810;48.270;9.996;2023-11-21T07:29:50;5.13;;;1.30;;
21301;SDS011;10810;48.270;9.996;2023-11-21T07:32:17;3.00;;;1.10;;
21301;SDS011;10810;48.270;9.996;2023-11-21T07:34:44;3.07;;;1.20;;
21301;SDS011;10810;48.270;9.996;2023-11-21T07:37:12;2.93;;;1.20;;
21301;SDS011;10810;48.270;9.996;2023-11-21T07:39:41;3.50;;;1.10;;
21301;SDS011;10810;48.270;9.996;2023-11-21T07:42:09;4.83;;;1.57;;
21301;SDS011;10810;48.270;9.996;2023-11-21T07:44:37;3.37;;;1.30;;
21301;SDS011;10810;48.270;9.996;2023-11-21T07:47:04;4.23;;;1.07;;
21301;SDS011;10810;48.270;9.996;2023-11-21T07:49:32;5.07;;;1.50;;
21301;SDS011;10810;48.270;9.996;2023-11-21T07:51:59;4.33;;;1.13;;
21301;SDS011;10810;48.270;9.996;2023-11-21T07:54:36;5.53;;;1.70;;
21301;SDS011;10810;48.270;9.996;2023-11-21T07:57:05;3.93;;;1.30;;
21301;SDS011;10810;48.270;9.996;2023-11-21T07:59:33;4.80;;;1.40;;
21301;SDS011;10810;48.270;9.996;2023-11-21T08:02:00;5.93;;;1.20;;
21301;SDS011;10810;48.270;9.996;2023-11-21T08:04:27;3.60;;;1.27;;
21301;SDS011;10810;48.270;9.996;2023-11-21T08:06:57;4.93;;;1.30;;
21301;SDS011;10810;48.270;9.996;2023-11-21T08:09:24;4.20;;;1.23;;
21301;SDS011;10810;48.270;9.996;2023-11-21T08:11:52;4.97;;;1.20;;
21301;SDS011;10810;48.270;9.996;2023-11-21T08:14:27;2.67;;;1.17;;
21301;SDS011;10810;48.270;9.996;2023-11-21T08:16:54;6.33;;;1.90;;
21301;SDS011;10810;48.270;9.996;2023-11-21T08:19:22;6.53;;;1.53;;
21301;SDS011;10810;48.270;9.996;2023-11-21T08:21:51;3.47;;;1.50;;
21301;SDS011;10810;48.270;9.996;2023-11-21T08:24:21;3.70;;;1.63;;
21301;SDS011;10810;48.270;9.996;2023-11-21T08:26:48;7.70;;;1.80;;
21301;SDS011;10810;48.270;9.996;2023-11-21T08:29:17;4.83;;;1.40;;
21301;SDS011;10810;48.270;9.996;2023-11-21T08:31:46;5.63;;;1.50;;
21301;SDS011;10810;48.270;9.996;2023-11-21T08:34:13;6.97;;;1.53;;
21301;SDS011;10810;48.270;9.996;2023-11-21T08:36:41;8.03;;;1.77;;
21301;SDS011;10810;48.270;9.996;2023-11-21T08:39:09;6.07;;;1.60;;
21301;SDS011;10810;48.270;9.996;2023-11-21T08:44:39;6.13;;;1.43;;
21301;SDS011;10810;48.270;9.996;2023-11-21T08:47:09;8.77;;;1.77;;
21301;SDS011;10810;48.270;9.996;2023-11-21T08:49:36;6.43;;;1.70;;
21301;SDS011;10810;48.270;9.996;2023-11-21T08:52:17;4.13;;;1.37;;
21301;SDS011;10810;48.270;9.996;2023-11-21T08:54:46;3.60;;;1.37;;
21301;SDS011;10810;48.270;9.996;2023-11-21T08:58:16;3.23;;;1.40;;
21301;SDS011;10810;48.270;9.996;2023-11-21T09:00:34;4.37;;;1.57;;
21301;SDS011;10810;48.270;9.996;2023-11-21T09:03:11;3.67;;;1.33;;
21301;SDS011;10810;48.270;9.996;2023-11-21T09:05:41;3.83;;;1.30;;
21301;SDS011;10810;48.270;9.996;2023-11-21T09:08:08;4.27;;;1.60;;
21301;SDS011;10810;48.270;9.996;2023-11-21T09:10:37;5.90;;;1.60;;
21301;SDS011;10810;48.270;9.996;2023-11-21T09:13:05;3.60;;;1.50;;
21301;SDS011;10810;48.270;9.996;2023-11-21T09:15:34;5.73;;;1.70;;
21301;SDS011;10810;48.270;9.996;2023-11-21T09:18:01;6.07;;;1.73;;
21301;SDS011;10810;48.270;9.996;2023-11-21T09:20:30;5.50;;;1.70;;
21301;SDS011;10810;48.270;9.996;2023-11-21T09:22:57;5.73;;;1.67;;
21301;SDS011;10810;48.270;9.996;2023-11-21T09:25:26;5.77;;;1.80;;
21301;SDS011;10810;48.270;9.996;2023-11-21T09:28:11;5.17;;;1.70;;
21301;SDS011;10810;48.270;9.996;2023-11-21T09:30:47;4.63;;;1.70;;
21301;SDS011;10810;48.270;9.996;2023-11-21T09:33:33;8.07;;;2.03;;
21301;SDS011;10810;48.270;9.996;2023-11-21T09:36:05;3.43;;;1.70;;
21301;SDS011;10810;48.270;9.996;2023-11-21T09:38:35;4.77;;;1.70;;
21301;SDS011;10810;48.270;9.996;2023-11-21T09:41:07;4.40;;;1.90;;
21301;SDS011;10810;48.270;9.996;2023-11-21T09:43:44;6.77;;;2.20;;
21301;SDS011;10810;48.270;9.996;2023-11-21T09:46:12;9.83;;;2.17;;
21301;SDS011;10810;48.270;9.996;2023-11-21T09:48:46;6.17;;;2.00;;
21301;SDS011;10810;48.270;9.996;2023-11-21T09:51:19;3.73;;;1.80;;
21301;SDS011;10810;48.270;9.996;2023-11-21T09:53:48;6.70;;;1.93;;
21301;SDS011;10810;48.270;9.996;2023-11-21T09:56:33;3.83;;;2.00;;
21301;SDS011;10810;48.270;9.996;2023-11-21T09:59:03;4.47;;;2.10;;
21301;SDS011;10810;48.270;9.996;2023-11-21T10:01:37;5.80;;;2.30;;
21301;SDS011;10810;48.270;9.996;2023-11-21T10:04:07;7.63;;;2.30;;
21301;SDS011;10810;48.270;9.996;2023-11-21T10:06:39;5.07;;;2.03;;
21301;SDS011;10810;48.270;9.996;2023-11-21T10:09:17;6.40;;;1.77;;
21301;SDS011;10810;48.270;9.996;2023-11-21T10:11:45;4.63;;;2.10;;
21301;SDS011;10810;48.270;9.996;2023-11-21T10:14:18;5.77;;;2.33;;
21301;SDS011;10810;48.270;9.996;2023-11-21T10:16:49;3.73;;;1.90;;
21301;SDS011;10810;48.270;9.996;2023-11-21T10:19:16;7.47;;;2.47;;
21301;SDS011;10810;48.270;9.996;2023-11-21T10:21:48;6.40;;;2.27;;
21301;SDS011;10810;48.270;9.996;2023-11-21T10:24:20;4.27;;;2.00;;
21301;SDS011;10810;48.270;9.996;2023-11-21T10:26:47;5.63;;;2.00;;
21301;SDS011;10810;48.270;9.996;2023-11-21T10:29:17;4.90;;;2.07;;
21301;SDS011;10810;48.270;9.996;2023-11-21T10:31:48;5.23;;;2.23;;
21301;SDS011;10810;48.270;9.996;2023-11-21T10:34:20;3.97;;;2.10;;
21301;SDS011;10810;48.270;9.996;2023-11-21T10:36:50;2.97;;;1.70;;
21301;SDS011;10810;48.270;9.996;2023-11-21T10:39:18;4.47;;;2.10;;
21301;SDS011;10810;48.270;9.996;2023-11-21T10:41:45;4.17;;;1.93;;
21301;SDS011;10810;48.270;9.996;2023-11-21T10:44:15;6.33;;;1.90;;
21301;SDS011;10810;48.270;9.996;2023-11-21T10:46:47;3.57;;;1.87;;
21301;SDS011;10810;48.270;9.996;2023-11-21T10:49:15;21.43;;;4.03;;
21301;SDS011;10810;48.270;9.996;2023-11-21T10:51:50;40.73;;;5.73;;
21301;SDS011;10810;48.270;9.996;2023-11-21T10:54:18;11.27;;;3.10;;
21301;SDS011;10810;48.270;9.996;2023-11-21T10:56:48;3.60;;;1.87;;
21301;SDS011;10810;48.270;9.996;2023-11-21T10:59:17;3.67;;;1.83;;
21301;SDS011;10810;48.270;9.996;2023-11-21T11:01:46;4.70;;;1.77;;
21301;SDS011;10810;48.270;9.996;2023-11-21T11:04:15;2.53;;;1.10;;
21301;SDS011;10810;48.270;9.996;2023-11-21T11:06:46;3.80;;;1.40;;
21301;SDS011;10810;48.270;9.996;2023-11-21T11:09:21;1.67;;;0.97;;
21301;SDS011;10810;48.270;9.996;2023-11-21T11:11:48;2.90;;;1.40;;
21301;SDS011;10810;48.270;9.996;2023-11-21T11:14:16;3.67;;;1.20;;
21301;SDS011;10810;48.270;9.996;2023-11-21T11:16:45;3.33;;;1.30;;
21301;SDS011;10810;48.270;9.996;2023-11-21T11:19:12;4.13;;;1.20;;
21301;SDS011;10810;48.270;9.996;2023-11-21T11:21:44;2.37;;;1.30;;
21301;SDS011;10810;48.270;9.996;2023-11-21T11:24:23;3.70;;;1.20;;
21301;SDS011;10810;48.270;9.996;2023-11-21T11:27:10;2.67;;;0.97;;
21301;SDS011;10810;48.270;9.996;2023-11-21T11:29:52;2.30;;;1.00;;
21301;SDS011;10810;48.270;9.996;2023-11-21T11:32:32;1.53;;;0.80;;
21301;SDS011;10810;48.270;9.996;2023-11-21T11:35:07;1.80;;;1.03;;
21301;SDS011;10810;48.270;9.996;2023-11-21T11:37:42;3.70;;;1.23;;
21301;SDS011;10810;48.270;9.996;2023-11-21T11:40:12;5.07;;;1.50;;
21301;SDS011;10810;48.270;9.996;2023-11-21T11:42:48;1.80;;;1.07;;
21301;SDS011;10810;48.270;9.996;2023-11-21T11:45:22;2.20;;;1.10;;
21301;SDS011;10810;48.270;9.996;2023-11-21T11:48:00;2.47;;;1.00;;
21301;SDS011;10810;48.270;9.996;2023-11-21T11:50:28;1.40;;;0.90;;
21301;SDS011;10810;48.270;9.996;2023-11-21T11:53:11;2.20;;;1.23;;
21301;SDS011;10810;48.270;9.996;2023-11-21T11:55:40;1.20;;;0.80;;
21301;SDS011;10810;48.270;9.996;2023-11-21T11:58:10;1.30;;;0.70;;
21301;SDS011;10810;48.270;9.996;2023-11-21T12:00:38;2.70;;;0.80;;
21301;SDS011;10810;48.270;9.996;2023-11-21T12:03:11;1.53;;;0.80;;
21301;SDS011;10810;48.270;9.996;2023-11-21T12:05:38;1.57;;;0.80;;
21301;SDS011;10810;48.270;9.996;2023-11-21T12:08:10;1.00;;;0.80;;
21301;SDS011;10810;48.270;9.996;2023-11-21T12:10:39;1.87;;;0.80;;
21301;SDS011;10810;48.270;9.996;2023-11-21T12:13:08;1.67;;;0.70;;
21301;SDS011;10810;48.270;9.996;2023-11-21T12:15:37;1.97;;;1.10;;
21301;SDS011;10810;48.270;9.996;2023-11-21T12:18:06;1.63;;;1.20;;
21301;SDS011;10810;48.270;9.996;2023-11-21T12:20:34;1.43;;;0.93;;
21301;SDS011;10810;48.270;9.996;2023-11-21T12:23:03;1.13;;;0.80;;
21301;SDS011;10810;48.270;9.996;2023-11-21T12:25:31;0.90;;;0.70;;
21301;SDS011;10810;48.270;9.996;2023-11-21T12:28:03;0.67;;;0.60;;
21301;SDS011;10810;48.270;9.996;2023-11-21T12:30:34;1.60;;;0.80;;
21301;SDS011;10810;48.270;9.996;2023-11-21T12:33:06;1.53;;;0.80;;
21301;SDS011;10810;48.270;9.996;2023-11-21T12:35:34;3.10;;;1.00;;
21301;SDS011;10810;48.270;9.996;2023-11-21T12:38:03;1.90;;;0.80;;
21301;SDS011;10810;48.270;9.996;2023-11-21T12:40:31;1.17;;;0.80;;
21301;SDS011;10810;48.270;9.996;2023-11-21T12:42:59;1.90;;;0.60;;
21301;SDS011;10810;48.270;9.996;2023-11-21T12:45:32;0.80;;;0.60;;
21301;SDS011;10810;48.270;9.996;2023-11-21T12:48:00;1.17;;;0.70;;
21301;SDS011;10810;48.270;9.996;2023-11-21T12:50:32;4.20;;;2.20;;
21301;SDS011;10810;48.270;9.996;2023-11-21T12:53:02;1.27;;;0.77;;
21301;SDS011;10810;48.270;9.996;2023-11-21T12:55:33;1.23;;;0.80;;
21301;SDS011;10810;48.270;9.996;2023-11-21T12:58:02;1.50;;;0.97;;
21301;SDS011;10810;48.270;9.996;2023-11-21T13:00:35;0.70;;;0.60;;
21301;SDS011;10810;48.270;9.996;2023-11-21T13:03:04;0.90;;;0.70;;
21301;SDS011;10810;48.270;9.996;2023-11-21T13:05:33;1.10;;;0.60;;
21301;SDS011;10810;48.270;9.996;2023-11-21T13:08:04;2.97;;;1.53;;
21301;SDS011;10810;48.270;9.996;2023-11-21T13:10:35;1.40;;;0.90;;
21301;SDS011;10810;48.270;9.996;2023-11-21T13:13:05;10.33;;;3.20;;
21301;SDS011;10810;48.270;9.996;2023-11-21T13:15:38;2.97;;;1.10;;
21301;SDS011;10810;48.270;9.996;2023-11-21T13:18:06;0.97;;;0.70;;
21301;SDS011;10810;48.270;9.996;2023-11-21T13:20:36;1.43;;;0.70;;
21301;SDS011;10810;48.270;9.996;2023-11-21T13:23:07;1.03;;;0.70;;
21301;SDS011;10810;48.270;9.996;2023-11-21T13:25:33;0.70;;;0.60;;
21301;SDS011;10810;48.270;9.996;2023-11-21T13:28:02;1.30;;;0.80;;
21301;SDS011;10810;48.270;9.996;2023-11-21T13:30:29;0.57;;;0.50;;
21301;SDS011;10810;48.270;9.996;2023-11-21T13:33:00;0.67;;;0.50;;
21301;SDS011;10810;48.270;9.996;2023-11-21T13:35:31;0.73;;;0.40;;
21301;SDS011;10810;48.270;9.996;2023-11-21T13:38:03;0.30;;;0.30;;
21301;SDS011;10810;48.270;9.996;2023-11-21T13:40:32;0.30;;;0.30;;
21301;SDS011;10810;48.270;9.996;2023-11-21T13:43:07;0.40;;;0.30;;
21301;SDS011;10810;48.270;9.996;2023-11-21T13:45:35;0.30;;;0.30;;
21301;SDS011;10810;48.270;9.996;2023-11-21T13:48:06;0.60;;;0.60;;
21301;SDS011;10810;48.270;9.996;2023-11-21T13:50:35;1.07;;;0.83;;
21301;SDS011;10810;48.270;9.996;2023-11-21T13:53:04;1.10;;;0.80;;
21301;SDS011;10810;48.270;9.996;2023-11-21T13:55:41;0.90;;;0.60;;
21301;SDS011;10810;48.270;9.996;2023-11-21T13:58:16;1.20;;;0.70;;
21301;SDS011;10810;48.270;9.996;2023-11-21T14:00:49;0.93;;;0.57;;
21301;SDS011;10810;48.270;9.996;2023-11-21T14:03:23;3.53;;;0.60;;
21301;SDS011;10810;48.270;9.996;2023-11-21T14:06:03;0.97;;;0.60;;
21301;SDS011;10810;48.270;9.996;2023-11-21T14:08:39;1.23;;;0.60;;
21301;SDS011;10810;48.270;9.996;2023-11-21T14:11:07;1.37;;;0.63;;
21301;SDS011;10810;48.270;9.996;2023-11-21T14:13:37;3.53;;;1.50;;
21301;SDS011;10810;48.270;9.996;2023-11-21T14:16:13;2.73;;;1.60;;
21301;SDS011;10810;48.270;9.996;2023-11-21T14:18:45;2.23;;;1.23;;
21301;SDS011;10810;48.270;9.996;2023-11-21T14:21:37;2.80;;;1.20;;
21301;SDS011;10810;48.270;9.996;2023-11-21T14:24:08;1.80;;;1.10;;
21301;SDS011;10810;48.270;9.996;2023-11-21T14:26:39;1.23;;;0.70;;
21301;SDS011;10810;48.270;9.996;2023-11-21T14:29:11;1.17;;;0.63;;
21301;SDS011;10810;48.270;9.996;2023-11-21T14:32:03;1.13;;;0.80;;
21301;SDS011;10810;48.270;9.996;2023-11-21T14:34:36;1.50;;;0.80;;
21301;SDS011;10810;48.270;9.996;2023-11-21T14:38:41;0.90;;;0.70;;
21301;SDS011;10810;48.270;9.996;2023-11-21T14:40:08;1.03;;;0.60;;
21301;SDS011;10810;48.270;9.996;2023-11-21T14:42:36;0.60;;;0.60;;
21301;SDS011;10810;48.270;9.996;2023-11-21T14:45:07;2.13;;;0.57;;
21301;SDS011;10810;48.270;9.996;2023-11-21T14:47:45;0.53;;;0.40;;
21301;SDS011;10810;48.270;9.996;2023-11-21T14:50:21;0.97;;;0.60;;
21301;SDS011;10810;48.270;9.996;2023-11-21T14:53:06;0.67;;;0.50;;
21301;SDS011;10810;48.270;9.996;2023-11-21T14:55:34;2.83;;;0.50;;
21301;SDS011;10810;48.270;9.996;2023-11-21T14:58:15;0.60;;;0.60;;
21301;SDS011;10810;48.270;9.996;2023-11-21T15:00:53;0.63;;;0.50;;
21301;SDS011;10810;48.270;9.996;2023-11-21T15:03:36;3.70;;;1.10;;
21301;SDS011;10810;48.270;9.996;2023-11-21T15:06:16;0.90;;;0.90;;
21301;SDS011;10810;48.270;9.996;2023-11-21T15:08:52;1.53;;;1.10;;
21301;SDS011;10810;48.270;9.996;2023-11-21T15:11:33;1.37;;;0.83;;
21301;SDS011;10810;48.270;9.996;2023-11-21T15:14:03;2.00;;;1.10;;
21301;SDS011;10810;48.270;9.996;2023-11-21T15:16:39;1.10;;;0.70;;
21301;SDS011;10810;48.270;9.996;2023-11-21T15:19:08;0.90;;;0.67;;
21301;SDS011;10810;48.270;9.996;2023-11-21T15:21:39;0.50;;;0.50;;
21301;SDS011;10810;48.270;9.996;2023-11-21T15:24:06;0.50;;;0.40;;
21301;SDS011;10810;48.270;9.996;2023-11-21T15:26:35;0.30;;;0.30;;
21301;SDS011;10810;48.270;9.996;2023-11-21T15:29:02;0.70;;;0.47;;
21301;SDS011;10810;48.270;9.996;2023-11-21T15:31:31;0.47;;;0.43;;
21301;SDS011;10810;48.270;9.996;2023-11-21T15:34:15;1.10;;;0.80;;
21301;SDS011;10810;48.270;9.996;2023-11-21T15:36:47;4.03;;;2.43;;
21301;SDS011;10810;48.270;9.996;2023-11-21T15:39:18;9.13;;;4.10;;
21301;SDS011;10810;48.270;9.996;2023-11-21T15:41:48;10.33;;;5.00;;
21301;SDS011;10810;48.270;9.996;2023-11-21T15:44:19;1.00;;;0.67;;
21301;SDS011;10810;48.270;9.996;2023-11-21T15:46:47;0.73;;;0.60;;
21301;SDS011;10810;48.270;9.996;2023-11-21T15:49:15;1.07;;;0.57;;
21301;SDS011;10810;48.270;9.996;2023-11-21T15:51:49;4.87;;;2.43;;
21301;SDS011;10810;48.270;9.996;2023-11-21T15:54:24;5.37;;;2.93;;
21301;SDS011;10810;48.270;9.996;2023-11-21T15:57:01;3.97;;;2.20;;
21301;SDS011;10810;48.270;9.996;2023-11-21T15:59:39;3.57;;;1.80;;
21301;SDS011;10810;48.270;9.996;2023-11-21T16:02:07;10.00;;;4.80;;